Fulton, Illinois
Current Conditions -  °F | °C
As of 4:55 PM on Monday 24 Nov 2014 (Local Time) from KCWI Reporting Station
Overcast Overcast  
Wind Chill:   Ceiling: 2000
Heat Index: 25°   Visibility: 1.5mi
Dew Point: 19°   Wind: 25mph
Humidity: 80%   Direction: 280°W
Pressure: 29.7"   Gusts: 29mph
Location:  41.87°N, 90.16°W
Report Text: KCWI 242255Z AUTO 28022G25KT 1 1/2SM OVC020 M04/M07 A2970 RMK AO1
Loading
Personal Weather Stations






























Interactive Weather Map New forecast layout! Learn more

10-Day Weather Forecast

Advertisements
Track Severe Weather on mobile